sensor_id;sensor_type;location;lat;lon;timestamp;pressure;altitude;pressure_sealevel;temperature;humidity
46087;BME280;31824;49.648;8.640;2023-09-18T00:02:45;99572.28;;;23.58;100.00
46087;BME280;31824;49.648;8.640;2023-09-18T00:05:47;99568.91;;;23.66;100.00
46087;BME280;31824;49.648;8.640;2023-09-18T00:08:51;99569.47;;;23.55;100.00
46087;BME280;31824;49.648;8.640;2023-09-18T00:11:53;99565.13;;;23.59;100.00
46087;BME280;31824;49.648;8.640;2023-09-18T00:14:55;99560.31;;;23.47;100.00
46087;BME280;31824;49.648;8.640;2023-09-18T00:17:56;99543.69;;;23.29;100.00
46087;BME280;31824;49.648;8.640;2023-09-18T00:20:58;99540.72;;;23.19;100.00
46087;BME280;31824;49.648;8.640;2023-09-18T00:24:02;99529.28;;;23.25;100.00
46087;BME280;31824;49.648;8.640;2023-09-18T00:27:05;99523.00;;;23.24;100.00
46087;BME280;31824;49.648;8.640;2023-09-18T00:30:07;99523.38;;;23.37;100.00
46087;BME280;31824;49.648;8.640;2023-09-18T00:33:10;99518.19;;;23.43;100.00
46087;BME280;31824;49.648;8.640;2023-09-18T00:36:12;99524.59;;;23.18;100.00
46087;BME280;31824;49.648;8.640;2023-09-18T00:39:15;99511.44;;;22.98;100.00
46087;BME280;31824;49.648;8.640;2023-09-18T00:42:17;99494.50;;;22.99;100.00
46087;BME280;31824;49.648;8.640;2023-09-18T00:45:20;99492.03;;;23.05;100.00
46087;BME280;31824;49.648;8.640;2023-09-18T00:48:21;99482.19;;;23.04;100.00
46087;BME280;31824;49.648;8.640;2023-09-18T00:51:23;99483.47;;;22.88;100.00
46087;BME280;31824;49.648;8.640;2023-09-18T00:54:27;99483.69;;;23.23;100.00
46087;BME280;31824;49.648;8.640;2023-09-18T00:57:29;99487.31;;;23.56;100.00
46087;BME280;31824;49.648;8.640;2023-09-18T01:00:31;99491.31;;;23.40;100.00
46087;BME280;31824;49.648;8.640;2023-09-18T01:03:32;99489.31;;;23.33;100.00
46087;BME280;31824;49.648;8.640;2023-09-18T01:06:35;99480.03;;;23.52;100.00
46087;BME280;31824;49.648;8.640;2023-09-18T01:09:39;99494.56;;;23.92;100.00
46087;BME280;31824;49.648;8.640;2023-09-18T01:12:45;99486.75;;;24.00;100.00
46087;BME280;31824;49.648;8.640;2023-09-18T01:15:53;99488.66;;;24.04;100.00
46087;BME280;31824;49.648;8.640;2023-09-18T01:18:56;99476.91;;;24.00;100.00
46087;BME280;31824;49.648;8.640;2023-09-18T01:21:57;99481.75;;;23.82;100.00
46087;BME280;31824;49.648;8.640;2023-09-18T01:25:01;99479.34;;;23.59;100.00
46087;BME280;31824;49.648;8.640;2023-09-18T01:28:03;99479.81;;;23.76;100.00
46087;BME280;31824;49.648;8.640;2023-09-18T01:31:05;99467.31;;;23.76;100.00
46087;BME280;31824;49.648;8.640;2023-09-18T01:34:08;99475.41;;;23.78;100.00
46087;BME280;31824;49.648;8.640;2023-09-18T01:37:12;99505.72;;;24.06;100.00
46087;BME280;31824;49.648;8.640;2023-09-18T01:40:17;99539.31;;;23.93;100.00
46087;BME280;31824;49.648;8.640;2023-09-18T01:43:19;99472.78;;;22.61;100.00
46087;BME280;31824;49.648;8.640;2023-09-18T01:46:22;99468.97;;;21.75;100.00
46087;BME280;31824;49.648;8.640;2023-09-18T01:49:28;99485.59;;;21.67;100.00
46087;BME280;31824;49.648;8.640;2023-09-18T01:52:30;99477.25;;;21.35;100.00
46087;BME280;31824;49.648;8.640;2023-09-18T01:55:34;99484.97;;;21.51;100.00
46087;BME280;31824;49.648;8.640;2023-09-18T01:58:35;99507.03;;;21.46;100.00
46087;BME280;31824;49.648;8.640;2023-09-18T02:01:38;99582.50;;;21.38;100.00
46087;BME280;31824;49.648;8.640;2023-09-18T02:04:40;99667.91;;;21.58;100.00
46087;BME280;31824;49.648;8.640;2023-09-18T02:08:02;99664.69;;;21.67;100.00
46087;BME280;31824;49.648;8.640;2023-09-18T02:11:07;99660.88;;;21.39;100.00
46087;BME280;31824;49.648;8.640;2023-09-18T02:14:09;99653.31;;;21.06;100.00
46087;BME280;31824;49.648;8.640;2023-09-18T02:17:11;99667.53;;;20.84;100.00
46087;BME280;31824;49.648;8.640;2023-09-18T02:20:13;99641.00;;;20.67;100.00
46087;BME280;31824;49.648;8.640;2023-09-18T02:23:15;99614.59;;;20.73;100.00
46087;BME280;31824;49.648;8.640;2023-09-18T02:26:19;99583.38;;;20.51;100.00
46087;BME280;31824;49.648;8.640;2023-09-18T02:29:21;99563.25;;;20.17;100.00
46087;BME280;31824;49.648;8.640;2023-09-18T02:32:22;99554.97;;;20.11;100.00
46087;BME280;31824;49.648;8.640;2023-09-18T02:35:24;99551.94;;;20.23;100.00
46087;BME280;31824;49.648;8.640;2023-09-18T02:38:28;99557.16;;;20.20;100.00
46087;BME280;31824;49.648;8.640;2023-09-18T02:41:31;99547.66;;;20.48;100.00
46087;BME280;31824;49.648;8.640;2023-09-18T02:44:33;99550.66;;;20.55;100.00
46087;BME280;31824;49.648;8.640;2023-09-18T02:47:35;99558.66;;;20.77;100.00
46087;BME280;31824;49.648;8.640;2023-09-18T02:50:39;99551.00;;;21.07;100.00
46087;BME280;31824;49.648;8.640;2023-09-18T02:53:40;99557.88;;;21.47;100.00
46087;BME280;31824;49.648;8.640;2023-09-18T02:56:44;99551.28;;;21.37;100.00
46087;BME280;31824;49.648;8.640;2023-09-18T02:59:46;99561.91;;;21.36;100.00
46087;BME280;31824;49.648;8.640;2023-09-18T03:02:48;99549.69;;;21.42;100.00
46087;BME280;31824;49.648;8.640;2023-09-18T03:05:50;99536.00;;;21.11;100.00
46087;BME280;31824;49.648;8.640;2023-09-18T03:08:52;99514.56;;;21.09;100.00
46087;BME280;31824;49.648;8.640;2023-09-18T03:11:56;99512.81;;;21.10;100.00
46087;BME280;31824;49.648;8.640;2023-09-18T03:14:59;99506.03;;;21.42;100.00
46087;BME280;31824;49.648;8.640;2023-09-18T03:18:02;99489.75;;;21.58;100.00
46087;BME280;31824;49.648;8.640;2023-09-18T03:21:05;99488.47;;;21.73;100.00
46087;BME280;31824;49.648;8.640;2023-09-18T03:24:07;99479.25;;;21.89;100.00
46087;BME280;31824;49.648;8.640;2023-09-18T03:27:10;99490.41;;;22.29;100.00
46087;BME280;31824;49.648;8.640;2023-09-18T03:30:12;99505.00;;;22.37;100.00
46087;BME280;31824;49.648;8.640;2023-09-18T03:33:14;99502.56;;;21.93;100.00
46087;BME280;31824;49.648;8.640;2023-09-18T03:36:16;99507.66;;;22.11;100.00
46087;BME280;31824;49.648;8.640;2023-09-18T03:39:18;99515.75;;;22.13;100.00
46087;BME280;31824;49.648;8.640;2023-09-18T03:42:21;99518.78;;;21.98;100.00
46087;BME280;31824;49.648;8.640;2023-09-18T03:45:23;99489.16;;;21.91;100.00
46087;BME280;31824;49.648;8.640;2023-09-18T03:48:25;99500.13;;;22.25;100.00
46087;BME280;31824;49.648;8.640;2023-09-18T03:51:27;99487.75;;;22.29;100.00
46087;BME280;31824;49.648;8.640;2023-09-18T03:54:28;99496.16;;;22.14;100.00
46087;BME280;31824;49.648;8.640;2023-09-18T03:57:31;99523.94;;;22.43;100.00
46087;BME280;31824;49.648;8.640;2023-09-18T04:00:34;99529.22;;;22.40;100.00
46087;BME280;31824;49.648;8.640;2023-09-18T04:03:36;99530.97;;;22.15;100.00
46087;BME280;31824;49.648;8.640;2023-09-18T04:06:40;99528.44;;;22.18;100.00
46087;BME280;31824;49.648;8.640;2023-09-18T04:09:42;99551.63;;;22.19;100.00
46087;BME280;31824;49.648;8.640;2023-09-18T04:12:46;99550.16;;;22.28;100.00
46087;BME280;31824;49.648;8.640;2023-09-18T04:15:47;99553.13;;;22.35;100.00
46087;BME280;31824;49.648;8.640;2023-09-18T04:18:49;99571.63;;;22.29;100.00
46087;BME280;31824;49.648;8.640;2023-09-18T04:21:52;99578.63;;;22.25;100.00
46087;BME280;31824;49.648;8.640;2023-09-18T04:24:54;99564.91;;;22.16;100.00
46087;BME280;31824;49.648;8.640;2023-09-18T04:27:57;99565.44;;;22.06;100.00
46087;BME280;31824;49.648;8.640;2023-09-18T04:30:59;99556.97;;;21.69;100.00
46087;BME280;31824;49.648;8.640;2023-09-18T04:34:01;99539.16;;;21.23;100.00
46087;BME280;31824;49.648;8.640;2023-09-18T04:37:04;99512.50;;;21.24;100.00
46087;BME280;31824;49.648;8.640;2023-09-18T04:40:08;99500.88;;;21.00;100.00
46087;BME280;31824;49.648;8.640;2023-09-18T04:43:14;99501.81;;;20.79;100.00
46087;BME280;31824;49.648;8.640;2023-09-18T04:46:16;99495.53;;;20.77;100.00
46087;BME280;31824;49.648;8.640;2023-09-18T04:49:19;99479.19;;;20.69;100.00
46087;BME280;31824;49.648;8.640;2023-09-18T04:52:20;99488.97;;;20.69;100.00
46087;BME280;31824;49.648;8.640;2023-09-18T04:55:22;99487.03;;;20.66;100.00
46087;BME280;31824;49.648;8.640;2023-09-18T04:58:26;99484.44;;;20.68;100.00
46087;BME280;31824;49.648;8.640;2023-09-18T05:01:27;99479.81;;;20.64;100.00
46087;BME280;31824;49.648;8.640;2023-09-18T05:04:31;99466.31;;;20.59;100.00
46087;BME280;31824;49.648;8.640;2023-09-18T05:07:33;99468.50;;;20.69;100.00
46087;BME280;31824;49.648;8.640;2023-09-18T05:10:35;99462.84;;;20.62;100.00
46087;BME280;31824;49.648;8.640;2023-09-18T05:13:38;99448.03;;;20.47;100.00
46087;BME280;31824;49.648;8.640;2023-09-18T05:16:40;99468.09;;;20.60;100.00
46087;BME280;31824;49.648;8.640;2023-09-18T05:19:42;99472.66;;;20.63;100.00
46087;BME280;31824;49.648;8.640;2023-09-18T05:22:44;99485.88;;;20.60;100.00
46087;BME280;31824;49.648;8.640;2023-09-18T05:25:47;99493.94;;;20.61;100.00
46087;BME280;31824;49.648;8.640;2023-09-18T05:28:50;99498.22;;;20.57;100.00
46087;BME280;31824;49.648;8.640;2023-09-18T05:31:52;99505.81;;;20.47;100.00
46087;BME280;31824;49.648;8.640;2023-09-18T05:34:54;99520.06;;;20.47;100.00
46087;BME280;31824;49.648;8.640;2023-09-18T05:37:56;99545.69;;;20.44;100.00
46087;BME280;31824;49.648;8.640;2023-09-18T05:41:00;99550.97;;;20.42;100.00
46087;BME280;31824;49.648;8.640;2023-09-18T05:44:03;99579.66;;;20.27;100.00
46087;BME280;31824;49.648;8.640;2023-09-18T05:47:06;99579.78;;;20.30;100.00
46087;BME280;31824;49.648;8.640;2023-09-18T05:50:11;99584.59;;;20.38;100.00
46087;BME280;31824;49.648;8.640;2023-09-18T05:53:17;99583.44;;;20.32;100.00
46087;BME280;31824;49.648;8.640;2023-09-18T05:56:19;99596.13;;;20.37;100.00
46087;BME280;31824;49.648;8.640;2023-09-18T05:59:23;99582.16;;;20.43;100.00
46087;BME280;31824;49.648;8.640;2023-09-18T06:02:24;99573.63;;;20.31;100.00
46087;BME280;31824;49.648;8.640;2023-09-18T06:05:26;99557.84;;;20.16;100.00
46087;BME280;31824;49.648;8.640;2023-09-18T06:08:28;99547.50;;;20.23;100.00
46087;BME280;31824;49.648;8.640;2023-09-18T06:11:31;99542.56;;;20.12;100.00
46087;BME280;31824;49.648;8.640;2023-09-18T06:14:35;99527.13;;;20.04;100.00
46087;BME280;31824;49.648;8.640;2023-09-18T06:17:37;99553.38;;;20.15;100.00
46087;BME280;31824;49.648;8.640;2023-09-18T06:20:41;99567.47;;;20.12;100.00
46087;BME280;31824;49.648;8.640;2023-09-18T06:23:42;99560.53;;;20.16;100.00
46087;BME280;31824;49.648;8.640;2023-09-18T06:26:44;99562.59;;;20.23;100.00
46087;BME280;31824;49.648;8.640;2023-09-18T06:29:47;99549.16;;;20.20;100.00
46087;BME280;31824;49.648;8.640;2023-09-18T06:32:49;99563.38;;;20.20;100.00
46087;BME280;31824;49.648;8.640;2023-09-18T06:35:51;99576.00;;;20.24;100.00
46087;BME280;31824;49.648;8.640;2023-09-18T06:38:53;99573.34;;;20.24;100.00
46087;BME280;31824;49.648;8.640;2023-09-18T06:41:55;99578.13;;;20.32;100.00
46087;BME280;31824;49.648;8.640;2023-09-18T06:44:59;99597.56;;;20.29;100.00
46087;BME280;31824;49.648;8.640;2023-09-18T06:48:03;99619.50;;;20.23;100.00
46087;BME280;31824;49.648;8.640;2023-09-18T06:51:06;99634.03;;;20.30;100.00
46087;BME280;31824;49.648;8.640;2023-09-18T06:54:08;99621.09;;;20.39;100.00
46087;BME280;31824;49.648;8.640;2023-09-18T06:57:09;99616.94;;;20.46;100.00
46087;BME280;31824;49.648;8.640;2023-09-18T07:00:14;99623.00;;;20.42;100.00
46087;BME280;31824;49.648;8.640;2023-09-18T07:03:16;99630.28;;;20.46;100.00
46087;BME280;31824;49.648;8.640;2023-09-18T07:06:20;99636.47;;;20.45;100.00
46087;BME280;31824;49.648;8.640;2023-09-18T07:09:23;99641.63;;;20.40;100.00
46087;BME280;31824;49.648;8.640;2023-09-18T07:12:26;99637.34;;;20.44;100.00
46087;BME280;31824;49.648;8.640;2023-09-18T07:15:29;99641.81;;;20.45;100.00
46087;BME280;31824;49.648;8.640;2023-09-18T07:18:31;99643.44;;;20.41;100.00
46087;BME280;31824;49.648;8.640;2023-09-18T07:21:33;99647.84;;;20.41;100.00
46087;BME280;31824;49.648;8.640;2023-09-18T07:24:36;99649.97;;;20.48;100.00
46087;BME280;31824;49.648;8.640;2023-09-18T07:27:42;99659.94;;;20.52;100.00
46087;BME280;31824;49.648;8.640;2023-09-18T07:30:49;99654.00;;;20.60;100.00
46087;BME280;31824;49.648;8.640;2023-09-18T07:33:50;99647.75;;;20.59;100.00
46087;BME280;31824;49.648;8.640;2023-09-18T07:36:54;99663.13;;;20.65;100.00
46087;BME280;31824;49.648;8.640;2023-09-18T07:39:58;99656.94;;;20.66;100.00
46087;BME280;31824;49.648;8.640;2023-09-18T07:43:00;99663.41;;;20.71;100.00
46087;BME280;31824;49.648;8.640;2023-09-18T07:46:03;99655.34;;;20.69;100.00
46087;BME280;31824;49.648;8.640;2023-09-18T07:49:04;99661.59;;;20.70;100.00
46087;BME280;31824;49.648;8.640;2023-09-18T07:52:06;99662.34;;;20.67;100.00
46087;BME280;31824;49.648;8.640;2023-09-18T07:55:08;99666.94;;;20.70;100.00
46087;BME280;31824;49.648;8.640;2023-09-18T07:58:11;99668.81;;;20.72;100.00
46087;BME280;31824;49.648;8.640;2023-09-18T08:01:14;99679.63;;;20.76;100.00
46087;BME280;31824;49.648;8.640;2023-09-18T08:04:18;99689.72;;;20.83;100.00
46087;BME280;31824;49.648;8.640;2023-09-18T08:07:20;99687.19;;;20.86;100.00
46087;BME280;31824;49.648;8.640;2023-09-18T08:10:22;99696.25;;;20.89;100.00
46087;BME280;31824;49.648;8.640;2023-09-18T08:13:24;99687.53;;;20.94;100.00
46087;BME280;31824;49.648;8.640;2023-09-18T08:16:27;99696.59;;;20.97;100.00
46087;BME280;31824;49.648;8.640;2023-09-18T08:19:30;99695.72;;;20.98;100.00
46087;BME280;31824;49.648;8.640;2023-09-18T08:22:33;99701.06;;;20.98;100.00
46087;BME280;31824;49.648;8.640;2023-09-18T08:25:35;99695.59;;;20.95;100.00
46087;BME280;31824;49.648;8.640;2023-09-18T08:28:37;99684.97;;;20.97;100.00
46087;BME280;31824;49.648;8.640;2023-09-18T08:31:46;99676.06;;;20.96;100.00
46087;BME280;31824;49.648;8.640;2023-09-18T08:34:48;99681.63;;;21.02;100.00
46087;BME280;31824;49.648;8.640;2023-09-18T08:37:49;99673.50;;;20.99;100.00
46087;BME280;31824;49.648;8.640;2023-09-18T08:40:53;99673.38;;;20.96;100.00
46087;BME280;31824;49.648;8.640;2023-09-18T08:43:59;99670.72;;;20.96;100.00
46087;BME280;31824;49.648;8.640;2023-09-18T08:47:03;99652.81;;;20.94;100.00
46087;BME280;31824;49.648;8.640;2023-09-18T08:50:08;99658.16;;;20.94;100.00
46087;BME280;31824;49.648;8.640;2023-09-18T08:53:11;99657.81;;;20.86;100.00
46087;BME280;31824;49.648;8.640;2023-09-18T08:56:13;99647.72;;;20.79;100.00
46087;BME280;31824;49.648;8.640;2023-09-18T08:59:16;99640.44;;;20.74;100.00
46087;BME280;31824;49.648;8.640;2023-09-18T09:02:19;99643.00;;;20.71;100.00
46087;BME280;31824;49.648;8.640;2023-09-18T09:05:21;99644.00;;;20.75;100.00
46087;BME280;31824;49.648;8.640;2023-09-18T09:08:24;99650.41;;;20.79;100.00
46087;BME280;31824;49.648;8.640;2023-09-18T09:11:25;99655.19;;;20.87;100.00
46087;BME280;31824;49.648;8.640;2023-09-18T09:14:27;99656.38;;;20.94;100.00
46087;BME280;31824;49.648;8.640;2023-09-18T09:17:31;99660.22;;;21.01;100.00
46087;BME280;31824;49.648;8.640;2023-09-18T09:20:34;99666.28;;;20.97;100.00
46087;BME280;31824;49.648;8.640;2023-09-18T09:23:45;99658.78;;;21.09;100.00
46087;BME280;31824;49.648;8.640;2023-09-18T09:26:57;99649.19;;;21.14;100.00
46087;BME280;31824;49.648;8.640;2023-09-18T09:30:00;99677.97;;;21.21;100.00
46087;BME280;31824;49.648;8.640;2023-09-18T09:33:04;99684.25;;;21.22;100.00
46087;BME280;31824;49.648;8.640;2023-09-18T09:36:07;99692.88;;;21.15;100.00
46087;BME280;31824;49.648;8.640;2023-09-18T09:39:10;99703.91;;;21.24;100.00
46087;BME280;31824;49.648;8.640;2023-09-18T09:42:12;99710.13;;;21.23;100.00
46087;BME280;31824;49.648;8.640;2023-09-18T09:45:15;99706.06;;;21.33;100.00
46087;BME280;31824;49.648;8.640;2023-09-18T09:48:21;99699.28;;;21.20;100.00
46087;BME280;31824;49.648;8.640;2023-09-18T09:51:23;99713.53;;;21.19;100.00
46087;BME280;31824;49.648;8.640;2023-09-18T09:54:32;99693.03;;;21.19;100.00
46087;BME280;31824;49.648;8.640;2023-09-18T09:57:41;99695.72;;;21.19;100.00
46087;BME280;31824;49.648;8.640;2023-09-18T10:00:51;99686.41;;;21.10;100.00
46087;BME280;31824;49.648;8.640;2023-09-18T10:03:58;99680.91;;;21.06;100.00
46087;BME280;31824;49.648;8.640;2023-09-18T10:07:05;99687.13;;;21.05;100.00
46087;BME280;31824;49.648;8.640;2023-09-18T10:10:09;99680.03;;;21.06;100.00
46087;BME280;31824;49.648;8.640;2023-09-18T10:13:15;99681.06;;;21.10;100.00
46087;BME280;31824;49.648;8.640;2023-09-18T10:16:18;99677.97;;;21.21;100.00
46087;BME280;31824;49.648;8.640;2023-09-18T10:19:27;99674.00;;;21.33;100.00
46087;BME280;31824;49.648;8.640;2023-09-18T10:22:31;99672.44;;;21.38;100.00
46087;BME280;31824;49.648;8.640;2023-09-18T10:25:39;99676.06;;;21.40;100.00
46087;BME280;31824;49.648;8.640;2023-09-18T10:28:43;99679.53;;;21.58;100.00
46087;BME280;31824;49.648;8.640;2023-09-18T10:31:46;99684.34;;;21.46;100.00
46087;BME280;31824;49.648;8.640;2023-09-18T10:34:50;99683.69;;;21.52;100.00
46087;BME280;31824;49.648;8.640;2023-09-18T10:37:54;99670.63;;;21.59;100.00
46087;BME280;31824;49.648;8.640;2023-09-18T10:40:57;99667.16;;;21.62;100.00
46087;BME280;31824;49.648;8.640;2023-09-18T10:43:59;99665.75;;;21.49;100.00
46087;BME280;31824;49.648;8.640;2023-09-18T10:47:05;99663.34;;;21.55;100.00
46087;BME280;31824;49.648;8.640;2023-09-18T10:50:09;99682.78;;;21.74;100.00
46087;BME280;31824;49.648;8.640;2023-09-18T10:53:12;99670.31;;;21.74;100.00
46087;BME280;31824;49.648;8.640;2023-09-18T10:56:14;99677.88;;;21.85;100.00
46087;BME280;31824;49.648;8.640;2023-09-18T10:59:18;99674.03;;;22.01;100.00
46087;BME280;31824;49.648;8.640;2023-09-18T11:02:24;99684.19;;;22.11;100.00
46087;BME280;31824;49.648;8.640;2023-09-18T11:05:30;99685.31;;;22.40;100.00
46087;BME280;31824;49.648;8.640;2023-09-18T11:08:33;99672.69;;;22.36;100.00
46087;BME280;31824;49.648;8.640;2023-09-18T11:11:36;99664.75;;;22.64;100.00
46087;BME280;31824;49.648;8.640;2023-09-18T11:14:42;99665.00;;;22.71;100.00
46087;BME280;31824;49.648;8.640;2023-09-18T11:17:58;99658.41;;;22.87;100.00
46087;BME280;31824;49.648;8.640;2023-09-18T11:21:08;99661.41;;;22.97;100.00
46087;BME280;31824;49.648;8.640;2023-09-18T11:24:15;99665.75;;;23.19;100.00
46087;BME280;31824;49.648;8.640;2023-09-18T11:27:24;99667.41;;;22.89;100.00
46087;BME280;31824;49.648;8.640;2023-09-18T11:30:26;99679.41;;;22.75;100.00
46087;BME280;31824;49.648;8.640;2023-09-18T11:33:32;99671.25;;;22.98;100.00
46087;BME280;31824;49.648;8.640;2023-09-18T11:36:36;99671.59;;;22.81;100.00
46087;BME280;31824;49.648;8.640;2023-09-18T11:39:39;99657.06;;;23.00;100.00
46087;BME280;31824;49.648;8.640;2023-09-18T11:43:19;99676.28;;;22.63;100.00
46087;BME280;31824;49.648;8.640;2023-09-18T11:46:25;99678.34;;;22.70;100.00
46087;BME280;31824;49.648;8.640;2023-09-18T11:49:27;99673.00;;;22.70;100.00
46087;BME280;31824;49.648;8.640;2023-09-18T11:52:30;99668.81;;;22.78;100.00
46087;BME280;31824;49.648;8.640;2023-09-18T11:55:33;99660.22;;;23.14;100.00
46087;BME280;31824;49.648;8.640;2023-09-18T11:58:44;99668.31;;;23.43;100.00
46087;BME280;31824;49.648;8.640;2023-09-18T12:01:52;99675.63;;;23.21;100.00
46087;BME280;31824;49.648;8.640;2023-09-18T12:04:54;99669.47;;;22.98;100.00
46087;BME280;31824;49.648;8.640;2023-09-18T12:07:57;99669.47;;;22.98;100.00
46087;BME280;31824;49.648;8.640;2023-09-18T12:10:59;99671.72;;;23.12;100.00
46087;BME280;31824;49.648;8.640;2023-09-18T12:14:01;99680.47;;;23.06;100.00
46087;BME280;31824;49.648;8.640;2023-09-18T12:17:04;99688.94;;;22.92;100.00
46087;BME280;31824;49.648;8.640;2023-09-18T12:20:14;99673.53;;;22.85;100.00
46087;BME280;31824;49.648;8.640;2023-09-18T12:23:17;99686.16;;;22.89;100.00
46087;BME280;31824;49.648;8.640;2023-09-18T12:26:22;99673.66;;;22.90;100.00
46087;BME280;31824;49.648;8.640;2023-09-18T12:29:26;99676.25;;;22.87;100.00
46087;BME280;31824;49.648;8.640;2023-09-18T12:32:29;99677.31;;;22.92;100.00
46087;BME280;31824;49.648;8.640;2023-09-18T12:35:31;99686.69;;;22.79;100.00
46087;BME280;31824;49.648;8.640;2023-09-18T12:38:34;99675.34;;;22.86;100.00
46087;BME280;31824;49.648;8.640;2023-09-18T12:41:37;99677.38;;;22.93;100.00
46087;BME280;31824;49.648;8.640;2023-09-18T12:44:39;99675.84;;;23.02;100.00
46087;BME280;31824;49.648;8.640;2023-09-18T12:47:41;99683.72;;;22.96;100.00
46087;BME280;31824;49.648;8.640;2023-09-18T12:50:43;99686.81;;;23.08;100.00
46087;BME280;31824;49.648;8.640;2023-09-18T12:53:46;99677.81;;;23.33;100.00
46087;BME280;31824;49.648;8.640;2023-09-18T12:56:48;99663.63;;;23.10;100.00
46087;BME280;31824;49.648;8.640;2023-09-18T12:59:50;99666.75;;;22.97;100.00
46087;BME280;31824;49.648;8.640;2023-09-18T13:02:53;99650.06;;;23.04;100.00
46087;BME280;31824;49.648;8.640;2023-09-18T13:06:07;99657.72;;;22.93;100.00
46087;BME280;31824;49.648;8.640;2023-09-18T13:09:17;99653.94;;;22.86;100.00
46087;BME280;31824;49.648;8.640;2023-09-18T13:12:20;99655.50;;;23.07;100.00
46087;BME280;31824;49.648;8.640;2023-09-18T13:15:25;99663.59;;;23.08;100.00
46087;BME280;31824;49.648;8.640;2023-09-18T13:18:29;99653.53;;;23.27;100.00
46087;BME280;31824;49.648;8.640;2023-09-18T13:21:31;99651.75;;;23.56;100.00
46087;BME280;31824;49.648;8.640;2023-09-18T13:24:34;99649.06;;;23.56;100.00
46087;BME280;31824;49.648;8.640;2023-09-18T13:27:36;99661.06;;;23.40;100.00
46087;BME280;31824;49.648;8.640;2023-09-18T13:30:39;99659.06;;;23.33;100.00
46087;BME280;31824;49.648;8.640;2023-09-18T13:33:41;99660.16;;;23.40;100.00
46087;BME280;31824;49.648;8.640;2023-09-18T13:36:47;99644.97;;;23.40;100.00
46087;BME280;31824;49.648;8.640;2023-09-18T13:39:50;99638.78;;;23.41;100.00
46087;BME280;31824;49.648;8.640;2023-09-18T13:42:52;99642.47;;;23.45;100.00
46087;BME280;31824;49.648;8.640;2023-09-18T13:45:55;99645.75;;;23.64;100.00
46087;BME280;31824;49.648;8.640;2023-09-18T13:48:59;99655.28;;;23.55;100.00
46087;BME280;31824;49.648;8.640;2023-09-18T13:52:01;99646.09;;;23.47;100.00
46087;BME280;31824;49.648;8.640;2023-09-18T13:55:04;99640.50;;;23.68;100.00
46087;BME280;31824;49.648;8.640;2023-09-18T13:58:10;99633.31;;;23.67;100.00
46087;BME280;31824;49.648;8.640;2023-09-18T14:01:12;99637.22;;;24.07;100.00
46087;BME280;31824;49.648;8.640;2023-09-18T14:04:16;99625.38;;;24.63;100.00
46087;BME280;31824;49.648;8.640;2023-09-18T14:07:18;99623.38;;;24.91;100.00
46087;BME280;31824;49.648;8.640;2023-09-18T14:10:21;99622.16;;;24.44;100.00
46087;BME280;31824;49.648;8.640;2023-09-18T14:13:24;99622.44;;;24.55;100.00
46087;BME280;31824;49.648;8.640;2023-09-18T14:16:25;99620.31;;;24.43;100.00
46087;BME280;31824;49.648;8.640;2023-09-18T14:19:27;99617.59;;;24.74;100.00
46087;BME280;31824;49.648;8.640;2023-09-18T14:22:30;99609.91;;;25.26;100.00
46087;BME280;31824;49.648;8.640;2023-09-18T14:25:33;99603.28;;;25.50;100.00
46087;BME280;31824;49.648;8.640;2023-09-18T14:28:35;99595.78;;;25.35;100.00
46087;BME280;31824;49.648;8.640;2023-09-18T14:31:37;99596.47;;;25.26;100.00
46087;BME280;31824;49.648;8.640;2023-09-18T14:34:39;99589.97;;;25.97;100.00
46087;BME280;31824;49.648;8.640;2023-09-18T14:37:40;99586.13;;;25.84;100.00
46087;BME280;31824;49.648;8.640;2023-09-18T14:40:44;99581.31;;;25.69;100.00
46087;BME280;31824;49.648;8.640;2023-09-18T14:43:45;99587.44;;;25.62;100.00
46087;BME280;31824;49.648;8.640;2023-09-18T14:46:47;99595.56;;;25.64;100.00
46087;BME280;31824;49.648;8.640;2023-09-18T14:49:50;99584.06;;;25.72;100.00
46087;BME280;31824;49.648;8.640;2023-09-18T14:52:52;99586.41;;;25.98;100.00
46087;BME280;31824;49.648;8.640;2023-09-18T14:55:55;99579.50;;;25.68;100.00
46087;BME280;31824;49.648;8.640;2023-09-18T14:58:58;99572.00;;;25.53;100.00
46087;BME280;31824;49.648;8.640;2023-09-18T15:01:59;99569.56;;;25.26;100.00
46087;BME280;31824;49.648;8.640;2023-09-18T15:05:01;99560.16;;;25.43;100.00
46087;BME280;31824;49.648;8.640;2023-09-18T15:08:03;99546.41;;;25.72;100.00
46087;BME280;31824;49.648;8.640;2023-09-18T15:11:07;99544.09;;;25.48;100.00
46087;BME280;31824;49.648;8.640;2023-09-18T15:14:08;99539.75;;;25.55;100.00
46087;BME280;31824;49.648;8.640;2023-09-18T15:17:11;99529.69;;;25.44;100.00
46087;BME280;31824;49.648;8.640;2023-09-18T15:20:13;99529.06;;;25.18;100.00
46087;BME280;31824;49.648;8.640;2023-09-18T15:23:15;99539.72;;;25.14;100.00
46087;BME280;31824;49.648;8.640;2023-09-18T15:26:18;99539.22;;;24.92;100.00
46087;BME280;31824;49.648;8.640;2023-09-18T15:29:20;99545.13;;;24.77;100.00
46087;BME280;31824;49.648;8.640;2023-09-18T15:32:23;99544.22;;;24.41;100.00
46087;BME280;31824;49.648;8.640;2023-09-18T15:35:25;99529.06;;;24.10;100.00
46087;BME280;31824;49.648;8.640;2023-09-18T15:38:27;99533.34;;;24.03;100.00
46087;BME280;31824;49.648;8.640;2023-09-18T15:41:32;99516.19;;;23.97;100.00
46087;BME280;31824;49.648;8.640;2023-09-18T15:44:34;99518.72;;;24.25;100.00
46087;BME280;31824;49.648;8.640;2023-09-18T15:47:37;99527.13;;;24.39;100.00
46087;BME280;31824;49.648;8.640;2023-09-18T15:50:39;99526.00;;;24.30;100.00
46087;BME280;31824;49.648;8.640;2023-09-18T15:53:41;99526.13;;;24.01;100.00
46087;BME280;31824;49.648;8.640;2023-09-18T15:56:44;99520.69;;;23.98;100.00
46087;BME280;31824;49.648;8.640;2023-09-18T15:59:46;99513.56;;;24.00;100.00